Time;durP1;ratioP1;P1;durP2;ratioP2;P2;SDS_P1;SDS_P2;PMS_P1;PMS_P2;Temp;Humidity;BMP_temperature;BMP_pressure;BME280_temperature;BME280_humidity;BME280_pressure;Samples;Min_cycle;Max_cycle;Signal;HPM_P1;HPM_P2
2023/08/26 00:02:21;;;;;;;;;;;;;;;;;;2212852;66;1656;-18
2023/08/26 00:04:52;;;;;;;;;;;;;;;;;;2218958;66;1665;-19
2023/08/26 00:07:22;;;;;;;;;;;;;;;;;;2214886;66;1939;-21
2023/08/26 00:09:52;;;;;;;;;;;;;;;;;;2219448;58;1756;-20
2023/08/26 00:12:22;;;;;;;;;;;;;;;;;;2218990;58;1607;-18
2023/08/26 00:14:53;;;;;;;;;;;;;;;;;;2219221;66;1483;-19
2023/08/26 00:17:23;;;;;;;;;;;;;;;;;;2216506;66;2329;-18
2023/08/26 00:19:54;;;;;;;;;;;;;;;;;;2219774;58;1630;-19
2023/08/26 00:22:24;;;;;;;;;;;;;;;;;;2219012;66;1861;-19
2023/08/26 00:24:55;;;;;;;;;;;;;;;;;;2216223;66;1992;-21
2023/08/26 00:27:25;;;;;;;;;;;;;;;;;;2215018;59;1945;-20
2023/08/26 00:29:55;;;;;;;;;;;;;;;;;;2215347;66;1856;-20
2023/08/26 00:32:25;;;;;;;;;;;;;;;;;;2218589;58;1527;-19
2023/08/26 00:34:56;;;;;;;;;;;;;;;;;;2219431;66;1986;-18
2023/08/26 00:37:26;;;;;;;;;;;;;;;;;;2217776;59;2656;-20
2023/08/26 00:39:56;;;;;;;;;;;;;;;;;;2218427;66;2456;-19
2023/08/26 00:42:26;;;;;;;;;;;;;;;;;;2215718;66;2039;-18
2023/08/26 00:44:57;;;;;;;;;;;;;;;;;;2215513;58;2641;-19
2023/08/26 00:47:27;;;;;;;;;;;;;;;;;;2217391;53;2076;-25
2023/08/26 00:49:57;;;;;;;;;;;;;;;;;;2217330;66;2748;-27
2023/08/26 00:52:27;;;;;;;;;;;;;;;;;;2218096;58;2221;-25
2023/08/26 00:54:58;;;;;;;;;;;;;;;;;;2217938;59;1563;-25
2023/08/26 00:57:28;;;;;;;;;;;;;;;;;;2218435;58;2793;-25
2023/08/26 00:59:58;;;;;;;;;;;;;;;;;;2215448;58;1890;-27
2023/08/26 01:02:28;;;;;;;;;;;;;;;;;;2218069;66;2668;-27
2023/08/26 01:04:59;;;;;;;;;;;;;;;;;;2218510;66;2271;-27
2023/08/26 01:07:29;;;;;;;;;;;;;;;;;;2218381;66;2753;-27
2023/08/26 01:09:59;;;;;;;;;;;;;;;;;;2218338;58;2698;-27
2023/08/26 01:12:44;;;;;;;;;;;;;;;;;;2218292;58;1846;-28
2023/08/26 01:15:15;;;;;;;;;;;;;;;;;;2218608;66;1777;-27
2023/08/26 01:17:45;;;;;;;;;;;;;;;;;;2217650;66;1911;-27
2023/08/26 01:20:16;;;;;;;;;;;;;;;;;;2218026;66;2951;-27
2023/08/26 01:22:48;;;;;;;;;;;;;;;;;;2218004;59;2387;-28
2023/08/26 01:25:18;;;;;;;;;;;;;;;;;;2214940;66;2442;-27
2023/08/26 01:27:48;;;;;;;;;;;;;;;;;;2214719;59;1968;-27
2023/08/26 01:30:21;;;;;;;;;;;;;;;;;;2218020;58;2821;-27
2023/08/26 01:32:58;;;;;;;;;;;;;;;;;;2217658;58;2357;-27
2023/08/26 01:35:32;;;;;;;;;;;;;;;;;;2217733;66;1490;-26
2023/08/26 01:38:03;;;;;;;;;;;;;;;;;;2213600;58;3141;-27
2023/08/26 01:40:34;;;;;;;;;;;;;;;;;;2217897;59;2457;-28
2023/08/26 01:43:05;;;;;;;;;;;;;;;;;;2217918;66;2098;-27
2023/08/26 01:45:38;;;;;;;;;;;;;;;;;;2217831;58;2327;-26
2023/08/26 01:48:08;;;;;;;;;;;;;;;;;;2218045;58;2039;-27
2023/08/26 01:50:38;;;;;;;;;;;;;;;;;;2218093;66;2737;-26
2023/08/26 01:53:09;;;;;;;;;;;;;;;;;;2217475;58;1795;-26
2023/08/26 01:55:39;;;;;;;;;;;;;;;;;;2218470;58;1727;-26
2023/08/26 01:58:09;;;;;;;;;;;;;;;;;;2217487;66;1921;-26
2023/08/26 02:00:39;;;;;;;;;;;;;;;;;;2218187;58;3062;-26
2023/08/26 02:03:10;;;;;;;;;;;;;;;;;;2217802;66;1939;-26
2023/08/26 02:05:40;;;;;;;;;;;;;;;;;;2218029;66;1952;-26
2023/08/26 02:08:10;;;;;;;;;;;;;;;;;;2217362;66;2806;-26
2023/08/26 02:10:40;;;;;;;;;;;;;;;;;;2217887;66;1933;-26
2023/08/26 02:13:12;;;;;;;;;;;;;;;;;;2217753;58;1939;-26
2023/08/26 02:15:42;;;;;;;;;;;;;;;;;;2217929;66;1842;-26
2023/08/26 02:18:12;;;;;;;;;;;;;;;;;;2218309;59;1515;-25
2023/08/26 02:20:42;;;;;;;;;;;;;;;;;;2218031;66;1857;-26
2023/08/26 02:23:12;;;;;;;;;;;;;;;;;;2218944;66;2425;-26
2023/08/26 02:25:43;;;;;;;;;;;;;;;;;;2219981;66;2234;-26
2023/08/26 02:28:13;;;;;;;;;;;;;;;;;;2219189;66;1937;-25
2023/08/26 02:30:43;;;;;;;;;;;;;;;;;;2218556;58;1846;-26
2023/08/26 02:33:13;;;;;;;;;;;;;;;;;;2219014;58;1854;-26
2023/08/26 02:35:47;;;;;;;;;;;;;;;;;;2218822;66;1893;-25
2023/08/26 02:38:17;;;;;;;;;;;;;;;;;;2217860;58;2646;-26
2023/08/26 02:40:50;;;;;;;;;;;;;;;;;;2217520;59;2722;-25
2023/08/26 02:43:21;;;;;;;;;;;;;;;;;;2218088;66;2417;-27
2023/08/26 02:45:52;;;;;;;;;;;;;;;;;;2217818;58;2023;-27
2023/08/26 02:48:22;;;;;;;;;;;;;;;;;;2218155;58;2511;-27
2023/08/26 02:51:00;;;;;;;;;;;;;;;;;;2218175;58;2533;-26
2023/08/26 02:53:30;;;;;;;;;;;;;;;;;;2214842;58;1786;-27
2023/08/26 02:56:01;;;;;;;;;;;;;;;;;;2214827;58;1852;-27
2023/08/26 02:58:34;;;;;;;;;;;;;;;;;;2217980;66;1620;-26
2023/08/26 03:01:06;;;;;;;;;;;;;;;;;;2214565;58;2041;-27
2023/08/26 03:03:36;;;;;;;;;;;;;;;;;;2216151;66;2393;-27
2023/08/26 03:06:06;;;;;;;;;;;;;;;;;;2218818;58;2235;-27
2023/08/26 03:08:37;;;;;;;;;;;;;;;;;;2218326;59;1989;-27
2023/08/26 03:11:10;;;;;;;;;;;;;;;;;;2217907;66;2492;-26
2023/08/26 03:13:40;;;;;;;;;;;;;;;;;;2216454;58;1811;-27
2023/08/26 03:16:11;;;;;;;;;;;;;;;;;;2215011;66;1843;-26
2023/08/26 03:18:41;;;;;;;;;;;;;;;;;;2218532;66;1926;-27
2023/08/26 03:21:11;;;;;;;;;;;;;;;;;;2217912;66;2608;-26
2023/08/26 03:23:41;;;;;;;;;;;;;;;;;;2218452;66;1981;-26
2023/08/26 03:26:12;;;;;;;;;;;;;;;;;;2218603;58;1946;-26
2023/08/26 03:28:45;;;;;;;;;;;;;;;;;;2218447;66;3028;-26
2023/08/26 03:31:15;;;;;;;;;;;;;;;;;;2218090;58;2397;-26
2023/08/26 03:33:45;;;;;;;;;;;;;;;;;;2218435;59;3102;-27
2023/08/26 03:36:16;;;;;;;;;;;;;;;;;;2218573;66;1933;-26
2023/08/26 03:38:46;;;;;;;;;;;;;;;;;;2214883;58;2070;-26
2023/08/26 03:41:16;;;;;;;;;;;;;;;;;;2214645;59;2433;-26
2023/08/26 03:43:46;;;;;;;;;;;;;;;;;;2215161;59;1545;-26
2023/08/26 03:46:17;;;;;;;;;;;;;;;;;;2217860;58;1794;-26
2023/08/26 03:48:47;;;;;;;;;;;;;;;;;;2217708;58;1944;-26
2023/08/26 03:51:17;;;;;;;;;;;;;;;;;;2218002;58;2542;-26
2023/08/26 03:53:48;;;;;;;;;;;;;;;;;;2218474;58;1863;-26
2023/08/26 03:56:18;;;;;;;;;;;;;;;;;;2218336;58;2267;-26
2023/08/26 03:58:50;;;;;;;;;;;;;;;;;;2215131;66;2603;-26
2023/08/26 04:01:20;;;;;;;;;;;;;;;;;;2218824;58;1784;-26
2023/08/26 04:03:51;;;;;;;;;;;;;;;;;;2218647;66;1785;-27
2023/08/26 04:06:21;;;;;;;;;;;;;;;;;;2218405;58;1785;-26
2023/08/26 04:08:51;;;;;;;;;;;;;;;;;;2218139;66;1998;-26
2023/08/26 04:11:21;;;;;;;;;;;;;;;;;;2217889;58;1736;-26
2023/08/26 04:13:52;;;;;;;;;;;;;;;;;;2214991;66;1713;-26
2023/08/26 04:16:22;;;;;;;;;;;;;;;;;;2218559;66;1860;-26
2023/08/26 04:18:52;;;;;;;;;;;;;;;;;;2218438;59;3402;-26
2023/08/26 04:21:23;;;;;;;;;;;;;;;;;;2218335;66;1802;-26
2023/08/26 04:23:53;;;;;;;;;;;;;;;;;;2218004;66;1774;-26
2023/08/26 04:26:23;;;;;;;;;;;;;;;;;;2217959;66;2197;-26
2023/08/26 04:28:53;;;;;;;;;;;;;;;;;;2218723;66;2014;-26
2023/08/26 04:31:23;;;;;;;;;;;;;;;;;;2218935;58;1909;-26
2023/08/26 04:33:54;;;;;;;;;;;;;;;;;;2218207;58;1751;-27
2023/08/26 04:36:24;;;;;;;;;;;;;;;;;;2218086;66;1817;-26
2023/08/26 04:38:54;;;;;;;;;;;;;;;;;;2218079;66;2519;-26
2023/08/26 04:41:24;;;;;;;;;;;;;;;;;;2217691;59;2688;-26
2023/08/26 04:43:55;;;;;;;;;;;;;;;;;;2217674;66;2224;-26
2023/08/26 04:46:25;;;;;;;;;;;;;;;;;;2214064;59;1791;-26
2023/08/26 04:48:56;;;;;;;;;;;;;;;;;;2214171;58;2393;-26
2023/08/26 04:51:26;;;;;;;;;;;;;;;;;;2218221;58;1816;-26
2023/08/26 04:53:56;;;;;;;;;;;;;;;;;;2217601;58;2592;-26
2023/08/26 04:56:27;;;;;;;;;;;;;;;;;;2218297;58;1982;-26
2023/08/26 04:58:57;;;;;;;;;;;;;;;;;;2218034;66;1963;-26
2023/08/26 05:01:27;;;;;;;;;;;;;;;;;;2218507;59;1161;-26
2023/08/26 05:03:57;;;;;;;;;;;;;;;;;;2219035;66;1488;-25
2023/08/26 05:06:27;;;;;;;;;;;;;;;;;;2219460;58;1430;-26
2023/08/26 05:08:58;;;;;;;;;;;;;;;;;;2219093;66;1929;-26
2023/08/26 05:11:28;;;;;;;;;;;;;;;;;;2218826;66;1418;-26
2023/08/26 05:13:58;;;;;;;;;;;;;;;;;;2215180;66;1642;-26
2023/08/26 05:16:28;;;;;;;;;;;;;;;;;;2218117;66;1794;-26
2023/08/26 05:18:59;;;;;;;;;;;;;;;;;;2217715;66;1687;-26
2023/08/26 05:21:32;;;;;;;;;;;;;;;;;;2218398;66;2301;-26
2023/08/26 05:24:03;;;;;;;;;;;;;;;;;;2217923;66;1177;-25
2023/08/26 05:26:33;;;;;;;;;;;;;;;;;;2212088;59;2234;-25
2023/08/26 05:29:04;;;;;;;;;;;;;;;;;;2216956;66;1936;-24
2023/08/26 05:31:34;;;;;;;;;;;;;;;;;;2217742;58;1455;-25
2023/08/26 05:34:04;;;;;;;;;;;;;;;;;;2217994;58;2044;-24
2023/08/26 05:36:35;;;;;;;;;;;;;;;;;;2218014;66;1791;-24
2023/08/26 05:39:05;;;;;;;;;;;;;;;;;;2218374;58;1381;-25
2023/08/26 05:41:35;;;;;;;;;;;;;;;;;;2211906;59;2576;-24
2023/08/26 05:44:06;;;;;;;;;;;;;;;;;;2217559;66;2583;-24
2023/08/26 05:46:36;;;;;;;;;;;;;;;;;;2219196;58;2864;-24
2023/08/26 05:49:06;;;;;;;;;;;;;;;;;;2216111;58;2557;-24
2023/08/26 05:51:37;;;;;;;;;;;;;;;;;;2219629;58;1737;-24
2023/08/26 05:54:07;;;;;;;;;;;;;;;;;;2218677;58;1480;-25
2023/08/26 05:56:37;;;;;;;;;;;;;;;;;;2219213;66;1881;-24
2023/08/26 05:59:07;;;;;;;;;;;;;;;;;;2218264;66;2236;-25
2023/08/26 06:01:37;;;;;;;;;;;;;;;;;;2219906;58;2008;-24
2023/08/26 06:04:08;;;;;;;;;;;;;;;;;;2218964;66;1973;-24
2023/08/26 06:06:38;;;;;;;;;;;;;;;;;;2219083;66;1821;-24
2023/08/26 06:09:09;;;;;;;;;;;;;;;;;;2218517;66;2122;-24
2023/08/26 06:11:40;;;;;;;;;;;;;;;;;;2219019;58;1761;-24
2023/08/26 06:14:10;;;;;;;;;;;;;;;;;;2218764;66;1906;-24
2023/08/26 06:16:40;;;;;;;;;;;;;;;;;;2219339;66;2748;-24
2023/08/26 06:19:10;;;;;;;;;;;;;;;;;;2215279;66;1774;-24
2023/08/26 06:21:41;;;;;;;;;;;;;;;;;;2218905;66;1809;-24
2023/08/26 06:24:11;;;;;;;;;;;;;;;;;;2218498;59;2037;-25
2023/08/26 06:26:42;;;;;;;;;;;;;;;;;;2215586;58;2114;-24
2023/08/26 06:29:15;;;;;;;;;;;;;;;;;;2215351;58;6733;-24
2023/08/26 06:31:45;;;;;;;;;;;;;;;;;;2215755;58;2701;-24
2023/08/26 06:34:15;;;;;;;;;;;;;;;;;;2218420;58;2240;-24
2023/08/26 06:36:46;;;;;;;;;;;;;;;;;;2218658;66;2349;-24
2023/08/26 06:39:16;;;;;;;;;;;;;;;;;;2218006;58;1946;-24
2023/08/26 06:41:46;;;;;;;;;;;;;;;;;;2218709;66;2449;-24
2023/08/26 06:44:17;;;;;;;;;;;;;;;;;;2217473;58;2301;-24
2023/08/26 06:46:47;;;;;;;;;;;;;;;;;;2215777;58;1884;-25
2023/08/26 06:49:17;;;;;;;;;;;;;;;;;;2218158;58;1996;-24
2023/08/26 06:51:47;;;;;;;;;;;;;;;;;;2218716;58;1871;-24
2023/08/26 06:54:17;;;;;;;;;;;;;;;;;;2218189;53;3700;-20
2023/08/26 06:56:48;;;;;;;;;;;;;;;;;;2208660;59;2341;-20
2023/08/26 06:59:18;;;;;;;;;;;;;;;;;;2211562;66;2084;-22
2023/08/26 07:01:48;;;;;;;;;;;;;;;;;;2209002;59;2623;-20
2023/08/26 07:04:19;;;;;;;;;;;;;;;;;;2212481;66;1781;-20
2023/08/26 07:06:50;;;;;;;;;;;;;;;;;;2210617;67;1794;-20
2023/08/26 07:09:20;;;;;;;;;;;;;;;;;;2212915;66;2332;-20
2023/08/26 07:11:50;;;;;;;;;;;;;;;;;;2213863;59;2389;-20
2023/08/26 07:14:21;;;;;;;;;;;;;;;;;;2213690;66;1953;-22
2023/08/26 07:16:51;;;;;;;;;;;;;;;;;;2213953;66;3222;-22
2023/08/26 07:19:21;;;;;;;;;;;;;;;;;;2210733;66;2351;-22
2023/08/26 07:21:51;;;;;;;;;;;;;;;;;;2213471;59;2072;-20
2023/08/26 07:24:22;;;;;;;;;;;;;;;;;;2209982;66;1883;-20
2023/08/26 07:26:52;;;;;;;;;;;;;;;;;;2212609;59;2113;-20
2023/08/26 07:29:22;;;;;;;;;;;;;;;;;;2210055;59;1909;-20
2023/08/26 07:31:52;;;;;;;;;;;;;;;;;;2212983;59;1988;-20
2023/08/26 07:34:23;;;;;;;;;;;;;;;;;;2212879;66;1953;-20
2023/08/26 07:36:53;;;;;;;;;;;;;;;;;;2212362;66;2679;-20
2023/08/26 07:39:24;;;;;;;;;;;;;;;;;;2211753;66;1910;-20
2023/08/26 07:41:54;;;;;;;;;;;;;;;;;;2213258;66;2482;-22
2023/08/26 07:44:24;;;;;;;;;;;;;;;;;;2212295;59;2604;-22
2023/08/26 07:46:56;;;;;;;;;;;;;;;;;;2212277;66;2481;-22
2023/08/26 07:49:26;;;;;;;;;;;;;;;;;;2212556;66;2289;-22
2023/08/26 07:51:57;;;;;;;;;;;;;;;;;;2212450;59;3441;-22
2023/08/26 07:54:27;;;;;;;;;;;;;;;;;;2212194;59;2099;-22
2023/08/26 07:56:57;;;;;;;;;;;;;;;;;;2212622;59;1766;-22
2023/08/26 07:59:27;;;;;;;;;;;;;;;;;;2212547;66;2233;-22
2023/08/26 08:01:58;;;;;;;;;;;;;;;;;;2212295;59;1445;-22
2023/08/26 08:04:28;;;;;;;;;;;;;;;;;;2212235;66;1812;-22
2023/08/26 08:06:58;;;;;;;;;;;;;;;;;;2212562;66;2774;-22
2023/08/26 08:09:28;;;;;;;;;;;;;;;;;;2212354;66;1990;-22
2023/08/26 08:11:59;;;;;;;;;;;;;;;;;;2212501;59;1786;-22
2023/08/26 08:14:29;;;;;;;;;;;;;;;;;;2209277;67;1812;-22
2023/08/26 08:17:00;;;;;;;;;;;;;;;;;;2212287;67;1878;-22
2023/08/26 08:19:30;;;;;;;;;;;;;;;;;;2212661;66;2799;-22
2023/08/26 08:22:00;;;;;;;;;;;;;;;;;;2212788;67;2491;-21
2023/08/26 08:24:31;;;;;;;;;;;;;;;;;;2212276;67;1927;-22
2023/08/26 08:27:04;;;;;;;;;;;;;;;;;;2213060;59;2031;-21
2023/08/26 08:29:34;;;;;;;;;;;;;;;;;;2212453;59;2291;-21
2023/08/26 08:32:04;;;;;;;;;;;;;;;;;;2210787;59;1801;-22
2023/08/26 08:34:35;;;;;;;;;;;;;;;;;;2213372;66;2466;-22
2023/08/26 08:37:08;;;;;;;;;;;;;;;;;;2212787;66;1734;-22
2023/08/26 08:39:38;;;;;;;;;;;;;;;;;;2212742;66;1896;-22
2023/08/26 08:42:09;;;;;;;;;;;;;;;;;;2212510;66;1773;-22
2023/08/26 08:44:44;;;;;;;;;;;;;;;;;;2212658;59;2194;-22
2023/08/26 08:47:15;;;;;;;;;;;;;;;;;;2211366;66;2261;-20
2023/08/26 08:49:46;;;;;;;;;;;;;;;;;;2212931;59;2843;-20
2023/08/26 08:52:17;;;;;;;;;;;;;;;;;;2209717;59;1650;-20
2023/08/26 08:54:47;;;;;;;;;;;;;;;;;;2212671;59;1636;-20
2023/08/26 08:57:20;;;;;;;;;;;;;;;;;;2212489;59;2038;-20
2023/08/26 08:59:51;;;;;;;;;;;;;;;;;;2212759;59;1193;-20
2023/08/26 09:02:22;;;;;;;;;;;;;;;;;;2208392;66;1588;-20
2023/08/26 09:04:52;;;;;;;;;;;;;;;;;;2211625;66;1671;-20
2023/08/26 09:07:23;;;;;;;;;;;;;;;;;;2211519;66;2057;-20
2023/08/26 09:09:54;;;;;;;;;;;;;;;;;;2211638;66;1360;-20
2023/08/26 09:12:24;;;;;;;;;;;;;;;;;;2211881;59;1258;-20
2023/08/26 09:14:54;;;;;;;;;;;;;;;;;;2211576;66;1183;-20
2023/08/26 09:17:24;;;;;;;;;;;;;;;;;;2212734;66;2533;-20
2023/08/26 09:19:58;;;;;;;;;;;;;;;;;;2212537;67;1800;-20
2023/08/26 09:22:31;;;;;;;;;;;;;;;;;;2212661;66;1188;-20
2023/08/26 09:25:03;;;;;;;;;;;;;;;;;;2213408;66;1925;-20
2023/08/26 09:27:34;;;;;;;;;;;;;;;;;;2212320;59;1939;-20
2023/08/26 09:30:05;;;;;;;;;;;;;;;;;;2212139;67;1795;-20
2023/08/26 09:32:36;;;;;;;;;;;;;;;;;;2212287;66;1647;-20
2023/08/26 09:35:15;;;;;;;;;;;;;;;;;;2212656;59;2119;-20
2023/08/26 09:37:46;;;;;;;;;;;;;;;;;;2208114;59;1733;-20
2023/08/26 09:40:16;;;;;;;;;;;;;;;;;;2212337;67;1315;-20
2023/08/26 09:42:47;;;;;;;;;;;;;;;;;;2211816;66;1739;-20
2023/08/26 09:45:17;;;;;;;;;;;;;;;;;;2211159;59;3134;-20
2023/08/26 09:47:49;;;;;;;;;;;;;;;;;;2211041;62;2577;-20
2023/08/26 09:50:29;;;;;;;;;;;;;;;;;;2211185;59;2737;-20
2023/08/26 09:52:59;;;;;;;;;;;;;;;;;;2212278;59;1806;-20
2023/08/26 09:55:30;;;;;;;;;;;;;;;;;;2212372;59;1673;-20
2023/08/26 09:58:00;;;;;;;;;;;;;;;;;;2212311;66;1804;-20
2023/08/26 10:00:31;;;;;;;;;;;;;;;;;;2211878;59;1778;-21
2023/08/26 10:03:03;;;;;;;;;;;;;;;;;;2208403;67;1728;-21
2023/08/26 10:05:37;;;;;;;;;;;;;;;;;;2209323;59;1793;-20
2023/08/26 10:08:08;;;;;;;;;;;;;;;;;;2211999;66;2028;-21
2023/08/26 10:10:52;;;;;;;;;;;;;;;;;;2211516;66;2265;-21
2023/08/26 10:13:24;;;;;;;;;;;;;;;;;;2211313;59;1555;-20
2023/08/26 10:15:55;;;;;;;;;;;;;;;;;;2211873;66;1455;-20
2023/08/26 10:18:39;;;;;;;;;;;;;;;;;;2211406;66;1728;-20
2023/08/26 10:21:09;;;;;;;;;;;;;;;;;;2210580;60;2603;-20
2023/08/26 10:23:40;;;;;;;;;;;;;;;;;;2212527;67;1890;-20
2023/08/26 10:26:11;;;;;;;;;;;;;;;;;;2211461;67;1758;-21
2023/08/26 10:28:42;;;;;;;;;;;;;;;;;;2211460;66;2003;-20
2023/08/26 10:31:13;;;;;;;;;;;;;;;;;;2211644;59;1622;-22
2023/08/26 10:34:02;;;;;;;;;;;;;;;;;;2212052;59;2274;-22
2023/08/26 10:36:39;;;;;;;;;;;;;;;;;;2212056;66;1377;-22
2023/08/26 10:39:15;;;;;;;;;;;;;;;;;;2209611;59;1537;-22
2023/08/26 10:42:04;;;;;;;;;;;;;;;;;;2212322;66;1760;-22
2023/08/26 10:44:38;;;;;;;;;;;;;;;;;;2212542;59;1387;-22
2023/08/26 10:47:08;;;;;;;;;;;;;;;;;;2210845;59;3754;-22
2023/08/26 10:49:39;;;;;;;;;;;;;;;;;;2208246;59;2934;-22
2023/08/26 10:52:19;;;;;;;;;;;;;;;;;;2212166;59;1886;-22
2023/08/26 10:54:49;;;;;;;;;;;;;;;;;;2212196;59;3850;-22
2023/08/26 10:57:19;;;;;;;;;;;;;;;;;;2212230;66;1962;-22
2023/08/26 10:59:49;;;;;;;;;;;;;;;;;;2212881;59;2085;-22
2023/08/26 11:02:23;;;;;;;;;;;;;;;;;;2211982;66;1760;-22
2023/08/26 11:04:55;;;;;;;;;;;;;;;;;;2212853;59;1802;-22
2023/08/26 11:07:26;;;;;;;;;;;;;;;;;;2212360;66;2951;-22
2023/08/26 11:09:56;;;;;;;;;;;;;;;;;;2212927;66;2964;-22
2023/08/26 11:12:28;;;;;;;;;;;;;;;;;;2212683;66;2048;-22
2023/08/26 11:15:05;;;;;;;;;;;;;;;;;;2207636;66;2743;-22
2023/08/26 11:17:36;;;;;;;;;;;;;;;;;;2212718;66;2518;-22
2023/08/26 11:20:07;;;;;;;;;;;;;;;;;;2213102;67;1855;-22
2023/08/26 11:22:38;;;;;;;;;;;;;;;;;;2213524;66;2476;-22
2023/08/26 11:25:12;;;;;;;;;;;;;;;;;;2213828;66;1596;-22
2023/08/26 11:27:42;;;;;;;;;;;;;;;;;;2213867;59;1936;-22
2023/08/26 11:30:13;;;;;;;;;;;;;;;;;;2210063;59;1680;-22
2023/08/26 11:32:48;;;;;;;;;;;;;;;;;;2215113;59;1528;-22
2023/08/26 11:35:19;;;;;;;;;;;;;;;;;;2210922;66;1615;-21
2023/08/26 11:37:49;;;;;;;;;;;;;;;;;;2213344;59;1280;-21
2023/08/26 11:40:19;;;;;;;;;;;;;;;;;;2213365;66;1660;-22
2023/08/26 11:42:50;;;;;;;;;;;;;;;;;;2214245;66;1717;-21
2023/08/26 11:45:20;;;;;;;;;;;;;;;;;;2213763;59;1611;-21
2023/08/26 11:47:52;;;;;;;;;;;;;;;;;;2210205;64;2703;-21
2023/08/26 11:50:22;;;;;;;;;;;;;;;;;;2212951;59;2360;-21
2023/08/26 11:52:56;;;;;;;;;;;;;;;;;;2213410;59;1839;-21
2023/08/26 11:55:28;;;;;;;;;;;;;;;;;;2210131;59;1848;-21
2023/08/26 11:57:59;;;;;;;;;;;;;;;;;;2213093;66;2803;-21
2023/08/26 12:00:30;;;;;;;;;;;;;;;;;;2213558;59;2443;-21
2023/08/26 12:03:02;;;;;;;;;;;;;;;;;;2214308;66;1771;-21
2023/08/26 12:05:43;;;;;;;;;;;;;;;;;;2209459;59;1871;-21
2023/08/26 12:08:19;;;;;;;;;;;;;;;;;;2214478;66;2386;-21
2023/08/26 12:10:50;;;;;;;;;;;;;;;;;;2215118;59;1512;-21
2023/08/26 12:13:20;;;;;;;;;;;;;;;;;;2214416;59;1420;-21
2023/08/26 12:15:50;;;;;;;;;;;;;;;;;;2214026;67;1935;-21
2023/08/26 12:18:21;;;;;;;;;;;;;;;;;;2211635;59;1188;-21
2023/08/26 12:20:54;;;;;;;;;;;;;;;;;;2214526;66;1359;-21
2023/08/26 12:23:24;;;;;;;;;;;;;;;;;;2214081;66;1635;-21
2023/08/26 12:25:54;;;;;;;;;;;;;;;;;;2213791;59;2244;-21
2023/08/26 12:28:25;;;;;;;;;;;;;;;;;;2214073;59;2005;-21
2023/08/26 12:30:55;;;;;;;;;;;;;;;;;;2214154;66;1677;-21
2023/08/26 12:33:25;;;;;;;;;;;;;;;;;;2214576;59;1563;-21
2023/08/26 12:35:56;;;;;;;;;;;;;;;;;;2213898;66;1285;-22
2023/08/26 12:38:27;;;;;;;;;;;;;;;;;;2214868;59;1705;-23
2023/08/26 12:40:58;;;;;;;;;;;;;;;;;;2214230;66;1680;-23
2023/08/26 12:43:28;;;;;;;;;;;;;;;;;;2211557;67;1266;-24
2023/08/26 12:45:58;;;;;;;;;;;;;;;;;;2214916;59;1405;-24
2023/08/26 12:48:29;;;;;;;;;;;;;;;;;;2211705;67;2694;-24
2023/08/26 12:51:02;;;;;;;;;;;;;;;;;;2214923;59;2427;-24
2023/08/26 12:53:32;;;;;;;;;;;;;;;;;;2215320;59;1757;-24
2023/08/26 12:56:03;;;;;;;;;;;;;;;;;;2214518;59;1870;-24
2023/08/26 12:58:33;;;;;;;;;;;;;;;;;;2214880;66;1448;-24
2023/08/26 13:01:04;;;;;;;;;;;;;;;;;;2214823;59;2680;-24
2023/08/26 13:03:34;;;;;;;;;;;;;;;;;;2215219;66;1792;-24
2023/08/26 13:06:04;;;;;;;;;;;;;;;;;;2214443;66;2464;-24
2023/08/26 13:08:34;;;;;;;;;;;;;;;;;;2214780;66;1968;-24
2023/08/26 13:11:05;;;;;;;;;;;;;;;;;;2215055;66;2858;-24
2023/08/26 13:13:35;;;;;;;;;;;;;;;;;;2214297;59;2107;-24
2023/08/26 13:16:05;;;;;;;;;;;;;;;;;;2214859;66;3587;-25
2023/08/26 13:18:38;;;;;;;;;;;;;;;;;;2211573;67;2844;-24
2023/08/26 13:21:08;;;;;;;;;;;;;;;;;;2214231;66;2007;-25
2023/08/26 13:23:38;;;;;;;;;;;;;;;;;;2213858;59;1618;-24
2023/08/26 13:26:09;;;;;;;;;;;;;;;;;;2211008;59;1796;-24
2023/08/26 13:28:39;;;;;;;;;;;;;;;;;;2214525;59;1937;-24
2023/08/26 13:31:09;;;;;;;;;;;;;;;;;;2213734;59;1901;-24
2023/08/26 13:33:40;;;;;;;;;;;;;;;;;;2211468;59;2392;-24
2023/08/26 13:36:10;;;;;;;;;;;;;;;;;;2214170;63;2060;-23
2023/08/26 13:38:40;;;;;;;;;;;;;;;;;;2210415;59;2108;-24
2023/08/26 13:41:10;;;;;;;;;;;;;;;;;;2214687;66;1860;-23
2023/08/26 13:43:42;;;;;;;;;;;;;;;;;;2215935;66;2139;-24
2023/08/26 13:46:13;;;;;;;;;;;;;;;;;;2214757;59;2655;-23
2023/08/26 13:48:43;;;;;;;;;;;;;;;;;;2213979;66;1966;-23
2023/08/26 13:51:13;;;;;;;;;;;;;;;;;;2213002;59;2273;-23
2023/08/26 13:53:44;;;;;;;;;;;;;;;;;;2214464;59;2342;-23
2023/08/26 13:56:14;;;;;;;;;;;;;;;;;;2212248;59;1749;-23
2023/08/26 13:58:44;;;;;;;;;;;;;;;;;;2213744;66;1930;-23
2023/08/26 14:01:14;;;;;;;;;;;;;;;;;;2210341;59;3713;-24
2023/08/26 14:03:45;;;;;;;;;;;;;;;;;;2214188;66;2780;-24
2023/08/26 14:06:15;;;;;;;;;;;;;;;;;;2213483;66;1685;-23
2023/08/26 14:08:45;;;;;;;;;;;;;;;;;;2213912;67;1987;-24
2023/08/26 14:11:15;;;;;;;;;;;;;;;;;;2214425;66;2632;-24
2023/08/26 14:13:47;;;;;;;;;;;;;;;;;;2214482;59;2790;-24
2023/08/26 14:16:18;;;;;;;;;;;;;;;;;;2215304;59;1477;-24
2023/08/26 14:18:48;;;;;;;;;;;;;;;;;;2214886;66;1789;-24
2023/08/26 14:21:18;;;;;;;;;;;;;;;;;;2212414;67;1913;-25
2023/08/26 14:23:48;;;;;;;;;;;;;;;;;;2215050;66;1897;-25
2023/08/26 14:26:19;;;;;;;;;;;;;;;;;;2214825;59;1733;-24
2023/08/26 14:28:49;;;;;;;;;;;;;;;;;;2214854;59;1935;-24
2023/08/26 14:31:19;;;;;;;;;;;;;;;;;;2211998;59;1830;-24
2023/08/26 14:33:50;;;;;;;;;;;;;;;;;;2214456;66;1963;-25
2023/08/26 14:36:20;;;;;;;;;;;;;;;;;;2215577;59;1779;-24
2023/08/26 14:38:50;;;;;;;;;;;;;;;;;;2215840;59;1496;-24
2023/08/26 14:41:20;;;;;;;;;;;;;;;;;;2216272;67;1942;-24
2023/08/26 14:43:51;;;;;;;;;;;;;;;;;;2215676;66;1363;-24
2023/08/26 14:46:21;;;;;;;;;;;;;;;;;;2215342;59;1745;-24
2023/08/26 14:48:51;;;;;;;;;;;;;;;;;;2212802;67;1973;-24
2023/08/26 14:51:24;;;;;;;;;;;;;;;;;;2213922;59;2882;-24
2023/08/26 14:53:55;;;;;;;;;;;;;;;;;;2215141;59;2019;-25
2023/08/26 14:56:25;;;;;;;;;;;;;;;;;;2215352;59;1911;-25
2023/08/26 14:58:56;;;;;;;;;;;;;;;;;;2215171;66;2227;-25
2023/08/26 15:01:26;;;;;;;;;;;;;;;;;;2215233;59;2465;-24
2023/08/26 15:03:56;;;;;;;;;;;;;;;;;;2214972;66;2612;-24
2023/08/26 15:06:26;;;;;;;;;;;;;;;;;;2214884;59;2208;-24
2023/08/26 15:08:57;;;;;;;;;;;;;;;;;;2211329;66;2462;-24
2023/08/26 15:11:27;;;;;;;;;;;;;;;;;;2215402;59;1464;-24
2023/08/26 15:13:57;;;;;;;;;;;;;;;;;;2214878;66;2704;-25
2023/08/26 15:16:27;;;;;;;;;;;;;;;;;;2214295;59;1624;-24
2023/08/26 15:18:58;;;;;;;;;;;;;;;;;;2214666;66;1813;-24
2023/08/26 15:21:28;;;;;;;;;;;;;;;;;;2212978;59;1999;-24
2023/08/26 15:23:59;;;;;;;;;;;;;;;;;;2215718;66;1765;-24
2023/08/26 15:26:30;;;;;;;;;;;;;;;;;;2215355;59;1824;-24
2023/08/26 15:29:00;;;;;;;;;;;;;;;;;;2209514;59;1939;-24
2023/08/26 15:31:30;;;;;;;;;;;;;;;;;;2216029;59;1754;-24
2023/08/26 15:34:01;;;;;;;;;;;;;;;;;;2215526;59;2621;-24
2023/08/26 15:36:31;;;;;;;;;;;;;;;;;;2215118;67;2120;-24
2023/08/26 15:39:01;;;;;;;;;;;;;;;;;;2214731;59;2003;-23
2023/08/26 15:41:31;;;;;;;;;;;;;;;;;;2216205;59;1968;-24
2023/08/26 15:44:02;;;;;;;;;;;;;;;;;;2215636;66;3311;-24
2023/08/26 15:46:32;;;;;;;;;;;;;;;;;;2214699;59;1821;-24
2023/08/26 15:49:05;;;;;;;;;;;;;;;;;;2215158;66;2343;-24
2023/08/26 15:51:35;;;;;;;;;;;;;;;;;;2214139;59;2264;-23
2023/08/26 15:54:05;;;;;;;;;;;;;;;;;;2213775;59;2219;-24
2023/08/26 15:56:37;;;;;;;;;;;;;;;;;;2215041;59;1647;-23
2023/08/26 15:59:07;;;;;;;;;;;;;;;;;;2211672;67;1894;-24
2023/08/26 16:01:37;;;;;;;;;;;;;;;;;;2212428;59;1633;-24
2023/08/26 16:04:07;;;;;;;;;;;;;;;;;;2214698;66;1220;-24
2023/08/26 16:06:38;;;;;;;;;;;;;;;;;;2214969;67;1387;-23
2023/08/26 16:09:08;;;;;;;;;;;;;;;;;;2214332;66;2024;-23
2023/08/26 16:11:38;;;;;;;;;;;;;;;;;;2214430;66;1906;-24
2023/08/26 16:14:09;;;;;;;;;;;;;;;;;;2214457;66;1607;-24
2023/08/26 16:16:39;;;;;;;;;;;;;;;;;;2214971;66;1249;-24
2023/08/26 16:19:09;;;;;;;;;;;;;;;;;;2214497;66;1696;-24
2023/08/26 16:21:40;;;;;;;;;;;;;;;;;;2212652;67;1345;-24
2023/08/26 16:24:10;;;;;;;;;;;;;;;;;;2214581;66;1474;-24
2023/08/26 16:26:40;;;;;;;;;;;;;;;;;;2214609;59;2003;-24
2023/08/26 16:29:10;;;;;;;;;;;;;;;;;;2211465;59;2089;-24
2023/08/26 16:31:41;;;;;;;;;;;;;;;;;;2212581;59;1661;-24
2023/08/26 16:34:11;;;;;;;;;;;;;;;;;;2208717;66;1543;-24
2023/08/26 16:36:44;;;;;;;;;;;;;;;;;;2212005;67;1949;-24
2023/08/26 16:39:15;;;;;;;;;;;;;;;;;;2214614;59;1476;-24
2023/08/26 16:41:45;;;;;;;;;;;;;;;;;;2214879;66;1475;-24
2023/08/26 16:44:15;;;;;;;;;;;;;;;;;;2211518;66;1487;-25
2023/08/26 16:46:45;;;;;;;;;;;;;;;;;;2214943;59;1781;-25
2023/08/26 16:49:15;;;;;;;;;;;;;;;;;;2213870;59;2083;-24
2023/08/26 16:51:46;;;;;;;;;;;;;;;;;;2214387;59;2672;-25
2023/08/26 16:54:16;;;;;;;;;;;;;;;;;;2212656;59;2151;-24
2023/08/26 16:56:46;;;;;;;;;;;;;;;;;;2214918;59;1695;-24
2023/08/26 16:59:16;;;;;;;;;;;;;;;;;;2211879;66;2096;-24
2023/08/26 17:01:48;;;;;;;;;;;;;;;;;;2214632;59;1796;-24
2023/08/26 17:04:18;;;;;;;;;;;;;;;;;;2213827;67;1844;-24
2023/08/26 17:06:49;;;;;;;;;;;;;;;;;;2214757;66;2651;-23
2023/08/26 17:09:21;;;;;;;;;;;;;;;;;;2213244;66;2363;-23
2023/08/26 17:11:58;;;;;;;;;;;;;;;;;;2210083;59;1761;-23
2023/08/26 17:14:28;;;;;;;;;;;;;;;;;;2213679;59;1535;-23
2023/08/26 17:16:59;;;;;;;;;;;;;;;;;;2213688;66;1820;-23
2023/08/26 17:19:30;;;;;;;;;;;;;;;;;;2213350;59;1897;-23
2023/08/26 17:22:00;;;;;;;;;;;;;;;;;;2212768;59;2463;-23
2023/08/26 17:24:31;;;;;;;;;;;;;;;;;;2211277;59;1700;-23
2023/08/26 17:27:01;;;;;;;;;;;;;;;;;;2213533;59;1453;-23
2023/08/26 17:29:31;;;;;;;;;;;;;;;;;;2210814;59;2139;-23